Time;durP1;ratioP1;P1;durP2;ratioP2;P2;SDS_P1;SDS_P2;PMS_P1;PMS_P2;Temp;Humidity;BMP_temperature;BMP_pressure;BME280_temperature;BME280_humidity;BME280_pressure;Samples;Min_cycle;Max_cycle;Signal;HPM_P1;HPM_P2
2021/06/24 00:02:15;;;;;;;28.43;20.20;;;21.70;99.90;;;;;;4441759;32;20146;-66
2021/06/24 00:04:42;;;;;;;30.20;21.47;;;21.80;99.90;;;;;;4447869;32;20165;-67
2021/06/24 00:07:09;;;;;;;28.90;20.55;;;21.80;99.90;;;;;;4449067;32;20199;-66
2021/06/24 00:09:36;;;;;;;29.47;20.70;;;21.80;99.90;;;;;;4439583;32;20143;-68
2021/06/24 00:12:04;;;;;;;29.83;21.33;;;21.80;99.90;;;;;;4440174;32;20162;-67
2021/06/24 00:14:30;;;;;;;28.07;19.90;;;21.70;99.90;;;;;;4440227;32;20444;-67
2021/06/24 00:16:57;;;;;;;28.73;21.00;;;21.70;99.90;;;;;;4439805;32;20135;-67
2021/06/24 00:19:24;;;;;;;29.90;22.60;;;21.70;99.90;;;;;;4440269;32;20165;-67
2021/06/24 00:21:51;;;;;;;30.50;22.33;;;21.60;99.90;;;;;;4440262;32;20222;-68
2021/06/24 00:24:18;;;;;;;26.93;20.93;;;21.50;99.90;;;;;;4439542;32;20353;-67
2021/06/24 00:26:45;;;;;;;28.50;21.17;;;21.50;99.90;;;;;;4439870;32;20207;-69
2021/06/24 00:29:12;;;;;;;30.20;20.83;;;21.50;99.90;;;;;;4450201;32;20547;-67
2021/06/24 00:31:39;;;;;;;30.47;21.57;;;21.50;99.90;;;;;;4448155;32;20203;-67
2021/06/24 00:34:06;;;;;;;32.80;21.90;;;21.50;99.90;;;;;;4446603;32;20151;-67
2021/06/24 00:36:33;;;;;;;31.30;21.87;;;21.40;99.90;;;;;;4439883;32;20173;-69
2021/06/24 00:39:00;;;;;;;29.97;22.20;;;21.40;99.90;;;;;;4439458;32;20213;-67
2021/06/24 00:41:28;;;;;;;32.13;21.80;;;21.40;99.90;;;;;;4441018;32;20139;-66
2021/06/24 00:43:55;;;;;;;31.13;21.80;;;21.40;99.90;;;;;;4440677;32;20201;-67
2021/06/24 00:46:22;;;;;;;33.07;22.13;;;21.50;99.90;;;;;;4441141;32;20165;-67
2021/06/24 00:48:57;;;;;;;30.90;22.20;;;21.40;99.90;;;;;;4439637;32;20487;-68
2021/06/24 00:51:25;;;;;;;34.77;22.80;;;21.40;99.90;;;;;;4441395;32;20432;-68
2021/06/24 00:53:52;;;;;;;32.90;22.00;;;21.40;99.90;;;;;;4440096;32;20169;-68
2021/06/24 00:56:29;;;;;;;29.33;21.10;;;21.40;99.90;;;;;;4441141;32;20199;-67
2021/06/24 00:58:58;;;;;;;29.93;22.17;;;21.30;99.90;;;;;;4441073;32;20150;-67
2021/06/24 01:01:25;;;;;;;29.27;21.17;;;21.20;99.90;;;;;;4440721;32;20142;-67
2021/06/24 01:03:52;;;;;;;29.83;21.57;;;21.30;99.90;;;;;;4440163;32;20387;-67
2021/06/24 01:06:19;;;;;;;32.63;22.47;;;21.20;99.90;;;;;;4440987;32;20464;-68
2021/06/24 01:08:46;;;;;;;29.00;21.27;;;21.20;99.90;;;;;;4438924;32;20172;-67
2021/06/24 01:11:14;;;;;;;30.13;21.43;;;21.10;99.90;;;;;;4441059;32;20511;-67
2021/06/24 01:13:44;;;;;;;31.57;22.53;;;21.10;99.90;;;;;;4440910;32;20150;-67
2021/06/24 01:16:11;;;;;;;31.67;22.17;;;21.20;99.90;;;;;;4439338;32;20397;-67
2021/06/24 01:18:38;;;;;;;31.20;22.20;;;21.10;99.90;;;;;;4440957;32;20157;-67
2021/06/24 01:21:05;;;;;;;30.00;21.93;;;21.00;99.90;;;;;;4440731;32;20135;-69
2021/06/24 01:23:37;;;;;;;30.30;21.90;;;21.00;99.90;;;;;;4439235;32;20486;-68
2021/06/24 01:26:04;;;;;;;31.27;21.73;;;21.00;99.90;;;;;;4439683;32;20223;-68
2021/06/24 01:28:31;;;;;;;31.73;21.73;;;20.90;99.90;;;;;;4439525;32;20216;-67
2021/06/24 01:30:58;;;;;;;31.73;21.83;;;21.00;99.90;;;;;;4438921;32;20187;-67
2021/06/24 01:33:26;;;;;;;35.47;24.17;;;20.90;99.90;;;;;;4439537;32;20167;-67
2021/06/24 01:36:01;;;;;;;36.87;25.23;;;20.90;99.90;;;;;;4439154;32;20472;-67
2021/06/24 01:38:28;;;;;;;32.20;22.53;;;20.70;99.90;;;;;;4439145;32;20134;-68
2021/06/24 01:40:55;;;;;;;32.77;22.90;;;20.80;99.90;;;;;;4440574;32;20220;-67
2021/06/24 01:43:22;;;;;;;33.57;23.57;;;20.80;99.90;;;;;;4440409;32;20460;-67
2021/06/24 01:45:51;;;;;;;29.00;21.80;;;20.80;99.90;;;;;;4439810;32;20210;-67
2021/06/24 01:48:19;;;;;;;32.13;22.77;;;20.80;99.90;;;;;;4453268;32;20373;-67
2021/06/24 01:50:46;;;;;;;31.57;23.30;;;20.80;99.90;;;;;;4440385;32;20172;-67
2021/06/24 01:53:14;;;;;;;32.63;22.50;;;20.70;99.90;;;;;;4447390;32;20154;-68
2021/06/24 01:55:42;;;;;;;34.73;24.33;;;20.70;99.90;;;;;;4438274;32;20218;-67
2021/06/24 01:58:13;;;;;;;32.00;22.77;;;20.60;99.90;;;;;;4438978;32;20143;-67
2021/06/24 02:00:42;;;;;;;34.53;23.40;;;20.60;99.90;;;;;;4440582;32;20195;-67
2021/06/24 02:03:09;;;;;;;36.03;23.80;;;20.60;99.90;;;;;;4440376;32;20139;-67
2021/06/24 02:05:36;;;;;;;33.93;23.97;;;20.60;99.90;;;;;;4440298;32;20135;-67
2021/06/24 02:08:03;;;;;;;35.30;25.67;;;20.70;99.90;;;;;;4438710;32;20184;-67
2021/06/24 02:10:30;;;;;;;35.03;23.50;;;20.60;99.90;;;;;;4438022;32;20138;-67
2021/06/24 02:12:58;;;;;;;34.90;23.57;;;20.60;99.90;;;;;;4439011;32;20135;-68
2021/06/24 02:15:25;;;;;;;32.50;23.00;;;20.60;99.90;;;;;;4443316;32;20241;-68
2021/06/24 02:17:52;;;;;;;31.17;22.60;;;20.60;99.90;;;;;;4443196;32;20206;-68
2021/06/24 02:20:19;;;;;;;40.67;23.87;;;20.50;99.90;;;;;;4443223;32;20138;-67
2021/06/24 02:22:46;;;;;;;33.60;23.27;;;20.50;99.90;;;;;;4441809;32;20147;-67
2021/06/24 02:25:13;;;;;;;31.73;23.53;;;20.60;99.90;;;;;;4442244;32;20170;-67
2021/06/24 02:27:41;;;;;;;32.50;23.40;;;20.50;99.90;;;;;;4441724;32;20331;-67
2021/06/24 02:30:10;;;;;;;32.13;23.23;;;20.50;99.90;;;;;;4441613;32;20138;-67
2021/06/24 02:32:37;;;;;;;34.83;24.40;;;20.60;99.90;;;;;;4443090;32;20142;-68
2021/06/24 02:35:14;;;;;;;34.63;24.93;;;20.50;99.90;;;;;;4441413;32;20162;-68
2021/06/24 02:37:42;;;;;;;31.67;22.77;;;20.40;99.90;;;;;;4443355;32;20412;-68
2021/06/24 02:40:12;;;;;;;33.63;24.30;;;20.50;99.90;;;;;;4441516;32;20441;-68
2021/06/24 02:42:40;;;;;;;33.37;23.17;;;20.50;99.90;;;;;;4442828;32;20520;-68
2021/06/24 02:45:09;;;;;;;32.37;22.27;;;20.50;99.90;;;;;;4441396;32;20207;-68
2021/06/24 02:47:36;;;;;;;30.97;22.00;;;20.60;99.90;;;;;;4442361;32;20207;-68
2021/06/24 02:50:08;;;;;;;32.50;22.57;;;20.60;99.90;;;;;;4442659;32;20146;-67
2021/06/24 02:52:35;;;;;;;30.77;22.83;;;20.60;99.90;;;;;;4441286;32;20204;-67
2021/06/24 02:55:03;;;;;;;29.20;21.83;;;20.60;99.90;;;;;;4441604;32;20393;-67
2021/06/24 02:57:30;;;;;;;29.87;22.00;;;20.60;99.90;;;;;;4442742;32;20464;-67
2021/06/24 02:59:56;;;;;;;33.03;22.67;;;20.70;99.90;;;;;;4441160;32;20451;-67
2021/06/24 03:02:23;;;;;;;33.00;21.33;;;20.70;99.90;;;;;;4441031;32;20184;-67
2021/06/24 03:04:50;;;;;;;30.73;21.37;;;20.60;99.90;;;;;;4441800;32;20143;-68
2021/06/24 03:07:17;;;;;;;31.17;21.40;;;20.60;99.90;;;;;;4442567;32;20528;-68
2021/06/24 03:09:44;;;;;;;30.20;20.83;;;20.60;99.90;;;;;;4441150;32;20205;-68
2021/06/24 03:12:11;;;;;;;27.90;19.83;;;20.60;99.90;;;;;;4440991;32;20185;-68
2021/06/24 03:14:38;;;;;;;29.33;20.73;;;20.60;99.90;;;;;;4440364;32;20142;-68
2021/06/24 03:17:05;;;;;;;29.87;20.83;;;20.70;99.90;;;;;;4441902;32;20193;-68
2021/06/24 03:19:32;;;;;;;28.30;20.60;;;20.70;99.90;;;;;;4440782;32;20134;-68
2021/06/24 03:21:59;;;;;;;26.97;19.83;;;20.80;99.90;;;;;;4440895;32;20202;-68
2021/06/24 03:24:25;;;;;;;26.57;20.13;;;20.80;99.90;;;;;;4445672;32;20535;-69
2021/06/24 03:26:53;;;;;;;29.47;20.30;;;20.90;99.90;;;;;;4446318;32;20174;-69
2021/06/24 03:29:19;;;;;;;28.33;20.37;;;20.90;99.90;;;;;;4444179;32;20496;-69
2021/06/24 03:31:46;;;;;;;27.27;19.23;;;20.90;99.90;;;;;;4446634;32;20449;-69
2021/06/24 03:34:13;;;;;;;28.07;19.77;;;21.00;99.90;;;;;;4442391;32;20165;-68
2021/06/24 03:36:40;;;;;;;29.20;19.87;;;21.20;99.90;;;;;;4440401;32;20209;-68
2021/06/24 03:39:07;;;;;;;30.33;20.30;;;21.20;99.90;;;;;;4440718;32;20191;-69
2021/06/24 03:41:35;;;;;;;30.07;20.73;;;21.30;99.90;;;;;;4442513;32;20142;-69
2021/06/24 03:44:02;;;;;;;27.50;20.07;;;21.40;99.90;;;;;;4442352;32;20194;-69
2021/06/24 03:46:32;;;;;;;29.67;20.93;;;21.40;99.90;;;;;;4440788;32;20158;-69
2021/06/24 03:48:59;;;;;;;29.73;21.30;;;21.50;99.90;;;;;;4440950;32;20142;-69
2021/06/24 03:51:26;;;;;;;30.63;21.37;;;21.50;99.90;;;;;;4442135;32;20146;-68
2021/06/24 03:53:53;;;;;;;28.93;20.93;;;21.50;99.90;;;;;;4441991;32;20206;-68
2021/06/24 03:56:20;;;;;;;29.80;21.10;;;21.60;99.90;;;;;;4440471;32;20173;-68
2021/06/24 03:58:47;;;;;;;26.47;20.53;;;21.50;99.90;;;;;;4439919;32;20153;-67
2021/06/24 04:01:15;;;;;;;30.60;22.70;;;21.60;99.90;;;;;;4440245;32;20146;-67
2021/06/24 04:03:42;;;;;;;30.57;20.90;;;21.60;99.90;;;;;;4441853;32;20139;-67
2021/06/24 04:06:08;;;;;;;28.27;21.33;;;21.70;99.90;;;;;;4440771;32;20150;-67
2021/06/24 04:08:36;;;;;;;33.40;22.03;;;21.80;99.90;;;;;;4441714;32;20178;-67
2021/06/24 04:11:03;;;;;;;32.60;22.50;;;21.90;99.90;;;;;;4440650;32;20142;-67
2021/06/24 04:13:35;;;;;;;30.33;20.90;;;21.90;99.90;;;;;;4441757;32;20197;-68
2021/06/24 04:16:03;;;;;;;32.80;22.13;;;21.70;99.90;;;;;;4441588;32;20162;-67
2021/06/24 04:18:30;;;;;;;31.13;22.27;;;21.80;99.90;;;;;;4441493;32;20134;-68
2021/06/24 04:20:57;;;;;;;28.40;20.83;;;21.80;99.90;;;;;;4439972;32;20139;-68
2021/06/24 04:23:24;;;;;;;32.53;21.80;;;21.90;99.90;;;;;;4440574;32;20158;-68
2021/06/24 04:25:51;;;;;;;31.13;21.53;;;22.00;99.90;;;;;;4440029;32;20495;-68
2021/06/24 04:28:18;;;;;;;31.57;22.93;;;22.10;99.90;;;;;;4439389;32;20191;-68
2021/06/24 04:30:45;;;;;;;31.83;22.33;;;22.10;99.90;;;;;;4439933;32;20196;-67
2021/06/24 04:33:12;;;;;;;32.30;23.20;;;22.10;99.90;;;;;;4439836;32;20453;-67
2021/06/24 04:35:39;;;;;;;32.03;23.47;;;22.10;99.90;;;;;;4439749;32;20142;-68
2021/06/24 04:38:06;;;;;;;35.73;24.57;;;22.00;99.90;;;;;;4438956;32;20187;-67
2021/06/24 04:40:33;;;;;;;34.07;24.30;;;22.10;99.90;;;;;;4440451;32;20196;-68
2021/06/24 04:43:00;;;;;;;34.90;24.20;;;22.10;99.90;;;;;;4439614;32;20158;-66
2021/06/24 04:45:30;;;;;;;38.20;24.50;;;22.10;99.90;;;;;;4441383;32;20147;-66
2021/06/24 04:47:58;;;;;;;34.83;24.13;;;22.10;99.90;;;;;;4439633;32;20146;-66
2021/06/24 04:50:25;;;;;;;34.87;23.77;;;22.10;99.90;;;;;;4439628;32;20433;-65
2021/06/24 04:52:52;;;;;;;33.07;23.80;;;22.20;99.90;;;;;;4440947;32;20154;-66
2021/06/24 04:55:20;;;;;;;34.97;23.70;;;22.10;99.90;;;;;;4445629;32;20172;-65
2021/06/24 04:57:47;;;;;;;34.07;23.43;;;22.10;99.90;;;;;;4440476;32;20176;-68
2021/06/24 05:00:19;;;;;;;29.47;21.70;;;22.20;99.90;;;;;;4440894;32;20150;-70
2021/06/24 05:02:45;;;;;;;29.37;21.90;;;22.30;99.90;;;;;;4439250;32;20182;-70
2021/06/24 05:05:13;;;;;;;30.52;22.45;;;22.30;99.90;;;;;;4439381;32;20188;-70
2021/06/24 05:07:40;;;;;;;29.80;22.27;;;22.40;99.90;;;;;;4440439;32;20143;-70
2021/06/24 05:10:08;;;;;;;29.97;21.50;;;22.50;99.90;;;;;;4440339;32;20158;-69
2021/06/24 05:12:35;;;;;;;29.67;21.87;;;22.50;99.90;;;;;;4438761;32;20166;-69
2021/06/24 05:15:03;;;;;;;27.93;20.30;;;22.60;99.90;;;;;;4437524;32;20241;-70
2021/06/24 05:17:30;;;;;;;27.98;20.52;;;22.70;99.90;;;;;;4438116;32;20146;-69
2021/06/24 05:19:58;;;;;;;28.80;21.00;;;22.90;99.90;;;;;;4438381;32;20456;-70
2021/06/24 05:22:26;;;;;;;27.30;21.05;;;23.00;99.90;;;;;;4438760;32;20170;-69
2021/06/24 05:24:53;;;;;;;28.43;20.53;;;23.00;99.90;;;;;;4438527;32;20150;-69
2021/06/24 05:27:21;;;;;;;25.58;19.50;;;23.10;99.90;;;;;;4438618;32;20142;-69
2021/06/24 05:29:47;;;;;;;24.13;18.07;;;23.10;99.90;;;;;;4438574;32;20436;-69
2021/06/24 05:32:15;;;;;;;23.57;17.17;;;23.20;99.90;;;;;;4438493;32;20202;-69
2021/06/24 05:34:42;;;;;;;23.80;16.05;;;23.10;99.90;;;;;;4439915;32;20169;-69
2021/06/24 05:37:09;;;;;;;21.55;16.62;;;23.20;99.90;;;;;;4439770;32;20174;-69
2021/06/24 05:39:35;;;;;;;21.75;17.35;;;23.40;99.90;;;;;;4439808;32;20424;-69
2021/06/24 05:42:03;;;;;;;24.20;17.27;;;23.60;99.90;;;;;;4438546;32;20189;-69
2021/06/24 05:44:30;;;;;;;24.40;17.55;;;23.60;99.90;;;;;;4440353;32;20168;-69
2021/06/24 05:46:57;;;;;;;23.80;17.17;;;23.70;99.90;;;;;;4437626;32;20150;-69
2021/06/24 05:49:24;;;;;;;26.50;17.40;;;23.70;99.90;;;;;;4443002;32;20143;-70
2021/06/24 05:51:51;;;;;;;22.35;16.90;;;23.90;99.90;;;;;;4442554;32;20158;-69
2021/06/24 05:54:18;;;;;;;25.35;18.35;;;24.00;99.90;;;;;;4441442;32;20452;-69
2021/06/24 05:56:45;;;;;;;23.98;17.25;;;24.20;99.90;;;;;;4442858;32;20177;-69
2021/06/24 05:59:12;;;;;;;28.87;17.67;;;24.30;99.90;;;;;;4441341;32;20188;-69
2021/06/24 06:01:43;;;;;;;26.12;16.05;;;24.40;99.90;;;;;;4443080;32;20184;-69
2021/06/24 06:04:10;;;;;;;23.73;15.57;;;24.50;99.90;;;;;;4441567;32;20456;-69
2021/06/24 06:06:38;;;;;;;21.27;14.98;;;24.60;99.90;;;;;;4441483;32;20142;-69
2021/06/24 06:09:05;;;;;;;20.70;14.48;;;24.60;99.90;;;;;;4442871;32;20135;-70
2021/06/24 06:11:33;;;;;;;19.92;13.95;;;24.70;99.90;;;;;;4441116;32;20198;-69
2021/06/24 06:14:00;;;;;;;18.20;13.77;;;24.80;99.90;;;;;;4442582;32;20199;-70
2021/06/24 06:16:27;;;;;;;19.12;13.80;;;24.90;99.90;;;;;;4440924;32;20161;-69
2021/06/24 06:18:56;;;;;;;23.52;13.90;;;25.00;99.90;;;;;;4442344;32;20225;-70
2021/06/24 06:21:23;;;;;;;22.00;14.23;;;25.10;99.90;;;;;;4442214;32;20215;-69
2021/06/24 06:23:50;;;;;;;20.35;14.75;;;25.10;99.90;;;;;;4441065;32;20433;-69
2021/06/24 06:26:17;;;;;;;24.00;14.63;;;25.10;99.90;;;;;;4442537;32;20162;-68
2021/06/24 06:28:44;;;;;;;22.17;13.52;;;25.00;99.90;;;;;;4442483;32;20181;-69
2021/06/24 06:31:11;;;;;;;21.05;13.65;;;25.00;99.90;;;;;;4440927;32;20147;-70
2021/06/24 06:33:38;;;;;;;23.00;13.82;;;24.90;99.90;;;;;;4442385;32;20345;-69
2021/06/24 06:36:05;;;;;;;18.55;13.88;;;24.90;99.90;;;;;;4440705;32;20154;-68
2021/06/24 06:38:32;;;;;;;19.52;13.13;;;24.80;99.90;;;;;;4440627;32;20146;-68
2021/06/24 06:40:59;;;;;;;21.15;13.85;;;24.70;99.90;;;;;;4441140;32;20521;-69
2021/06/24 06:43:26;;;;;;;19.60;13.27;;;24.60;99.90;;;;;;4440680;32;20182;-68
2021/06/24 06:46:02;;;;;;;17.80;13.10;;;24.60;99.90;;;;;;4442563;32;20423;-68
2021/06/24 06:48:29;;;;;;;21.95;13.62;;;24.50;99.90;;;;;;4441435;32;20154;-69
2021/06/24 06:50:56;;;;;;;24.52;14.07;;;24.50;99.90;;;;;;4440669;32;20182;-69
2021/06/24 06:53:23;;;;;;;20.15;14.30;;;24.30;99.90;;;;;;4442173;32;20139;-69
2021/06/24 06:55:50;;;;;;;20.00;14.02;;;24.20;99.90;;;;;;4441494;32;20199;-69
2021/06/24 06:58:17;;;;;;;21.20;14.20;;;23.90;99.90;;;;;;4440472;32;20139;-68
2021/06/24 07:00:44;;;;;;;21.65;13.57;;;23.80;99.90;;;;;;4440576;32;20258;-69
2021/06/24 07:03:11;;;;;;;26.25;14.75;;;23.80;99.90;;;;;;4442122;32;20191;-68
2021/06/24 07:05:38;;;;;;;27.70;15.07;;;23.60;99.90;;;;;;4440626;32;20134;-68
2021/06/24 07:08:05;;;;;;;22.08;14.32;;;23.30;99.90;;;;;;4440456;32;20181;-69
2021/06/24 07:10:32;;;;;;;21.20;14.70;;;23.20;99.90;;;;;;4441900;32;20151;-69
2021/06/24 07:12:59;;;;;;;19.12;13.98;;;23.00;99.90;;;;;;4441739;32;20147;-69
2021/06/24 07:15:26;;;;;;;26.90;18.12;;;22.90;99.90;;;;;;4441589;32;20241;-69
2021/06/24 07:17:54;;;;;;;31.00;20.52;;;22.80;99.90;;;;;;4442012;32;20444;-69
2021/06/24 07:20:21;;;;;;;32.83;22.30;;;22.60;99.90;;;;;;4440100;32;20230;-68
2021/06/24 07:22:48;;;;;;;36.23;23.53;;;22.50;99.90;;;;;;4439467;32;20147;-68
2021/06/24 07:25:17;;;;;;;33.75;24.80;;;22.40;99.90;;;;;;4441557;32;20146;-69
2021/06/24 07:27:45;;;;;;;38.40;27.13;;;22.30;99.90;;;;;;4440695;32;20244;-68
2021/06/24 07:30:13;;;;;;;14.43;10.67;;;22.10;99.90;;;;;;4439830;32;20169;-67
2021/06/24 07:32:40;;;;;;;14.87;9.40;;;21.50;99.90;;;;;;4441207;32;20184;-66
2021/06/24 07:35:07;;;;;;;15.13;8.10;;;20.70;99.90;;;;;;4440664;32;20139;-66
2021/06/24 07:37:35;;;;;;;8.97;5.53;;;20.10;99.90;;;;;;4438761;32;20147;-67
2021/06/24 07:40:06;;;;;;;11.83;5.80;;;19.80;99.90;;;;;;4439687;32;20190;-67
2021/06/24 07:42:32;;;;;;;10.77;5.10;;;19.50;99.90;;;;;;4440490;32;20159;-67
2021/06/24 07:45:00;;;;;;;10.70;4.70;;;19.30;99.90;;;;;;4439818;32;20216;-67
2021/06/24 07:47:27;;;;;;;6.47;4.00;;;19.10;99.90;;;;;;4439889;32;20146;-67
2021/06/24 07:49:54;;;;;;;9.77;4.10;;;18.80;99.90;;;;;;4439722;32;20147;-67
2021/06/24 07:52:21;;;;;;;10.57;4.63;;;18.70;99.90;;;;;;4441207;32;20515;-68
2021/06/24 07:54:48;;;;;;;9.53;5.50;;;18.70;99.90;;;;;;4439569;32;20436;-68
2021/06/24 07:57:18;;;;;;;11.23;5.97;;;18.60;99.90;;;;;;4441065;32;20193;-68
2021/06/24 07:59:46;;;;;;;13.33;6.00;;;18.70;99.90;;;;;;4439917;32;20230;-69
2021/06/24 08:02:13;;;;;;;13.47;6.03;;;18.60;99.90;;;;;;4439543;32;20146;-69
2021/06/24 08:04:41;;;;;;;11.57;6.13;;;18.50;99.90;;;;;;4439460;32;20169;-69
2021/06/24 08:07:09;;;;;;;18.20;6.27;;;18.50;99.90;;;;;;4440662;32;20154;-68
2021/06/24 08:09:37;;;;;;;16.53;6.70;;;18.40;99.90;;;;;;4441122;32;20170;-68
2021/06/24 08:12:05;;;;;;;13.87;6.73;;;18.40;99.90;;;;;;4438855;32;20162;-69
2021/06/24 08:14:32;;;;;;;14.00;6.83;;;18.40;99.90;;;;;;4440780;32;20165;-69
2021/06/24 08:16:59;;;;;;;13.67;6.17;;;18.40;99.90;;;;;;4440566;32;20448;-69
2021/06/24 08:19:25;;;;;;;12.83;6.10;;;18.40;99.90;;;;;;4440758;32;20143;-69
2021/06/24 08:21:58;;;;;;;18.53;6.37;;;18.50;99.90;;;;;;4439323;32;20139;-69
2021/06/24 08:24:26;;;;;;;15.27;6.30;;;18.50;99.90;;;;;;4440785;32;20164;-69
2021/06/24 08:26:53;;;;;;;18.37;7.13;;;18.50;99.90;;;;;;4438895;32;20163;-69
2021/06/24 08:29:20;;;;;;;15.40;7.00;;;18.60;99.90;;;;;;4438159;32;20425;-68
2021/06/24 08:31:47;;;;;;;17.43;6.23;;;18.50;99.90;;;;;;4440404;32;20444;-69
2021/06/24 08:34:14;;;;;;;13.83;6.37;;;18.50;99.90;;;;;;4440386;32;20180;-69
2021/06/24 08:36:41;;;;;;;15.80;6.03;;;18.50;99.90;;;;;;4438827;32;20177;-69
2021/06/24 08:39:09;;;;;;;15.30;6.77;;;18.50;99.90;;;;;;4438822;32;20360;-69
2021/06/24 08:41:37;;;;;;;12.83;6.17;;;18.50;99.90;;;;;;4439889;32;20155;-68
2021/06/24 08:44:06;;;;;;;12.80;6.27;;;18.40;99.90;;;;;;4439944;32;20217;-69
2021/06/24 08:46:33;;;;;;;14.53;5.97;;;18.40;99.90;;;;;;4440124;32;20368;-68
2021/06/24 08:49:01;;;;;;;15.40;6.20;;;18.40;99.90;;;;;;4438766;32;20139;-68
2021/06/24 08:51:28;;;;;;;16.13;6.10;;;18.50;99.90;;;;;;4438517;32;20161;-68
2021/06/24 08:53:56;;;;;;;14.43;6.33;;;18.40;99.90;;;;;;4438477;32;20477;-68
2021/06/24 08:56:22;;;;;;;13.30;6.60;;;18.40;99.90;;;;;;4438475;32;20504;-68
2021/06/24 08:58:53;;;;;;;14.80;6.03;;;18.50;99.90;;;;;;4440333;32;20166;-68
2021/06/24 09:01:20;;;;;;;12.20;6.60;;;18.60;99.90;;;;;;4438880;32;20192;-68
2021/06/24 09:03:49;;;;;;;12.30;6.33;;;18.80;99.90;;;;;;4438819;32;20138;-67
2021/06/24 09:06:17;;;;;;;14.80;6.37;;;18.90;99.90;;;;;;4438066;32;20166;-67
2021/06/24 09:08:52;;;;;;;12.17;5.73;;;18.90;99.90;;;;;;4438172;32;20214;-68
2021/06/24 09:11:28;;;;;;;17.77;6.60;;;18.90;99.90;;;;;;4438826;32;20189;-67
2021/06/24 09:14:00;;;;;;;14.23;6.70;;;19.00;99.90;;;;;;4438871;32;20141;-67
2021/06/24 09:16:36;;;;;;;15.57;6.50;;;19.10;99.90;;;;;;4440209;32;20192;-67
2021/06/24 09:19:24;;;;;;;14.10;6.83;;;19.10;99.90;;;;;;4437727;32;20507;-67
2021/06/24 09:22:08;;;;;;;12.67;7.20;;;19.10;99.90;;;;;;4438133;32;20158;-67
2021/06/24 09:24:40;;;;;;;16.10;7.27;;;19.20;99.90;;;;;;4439944;32;20205;-67
2021/06/24 09:27:28;;;;;;;16.27;6.90;;;19.30;99.90;;;;;;4438764;32;20211;-68
2021/06/24 09:30:08;;;;;;;15.10;7.60;;;19.40;99.90;;;;;;4439896;32;20195;-68
2021/06/24 09:32:37;;;;;;;13.60;7.13;;;19.40;99.90;;;;;;4438377;32;20333;-68
2021/06/24 09:35:07;;;;;;;12.20;6.50;;;19.60;99.90;;;;;;4439910;32;20456;-68
2021/06/24 09:38:02;;;;;;;12.00;6.70;;;19.80;99.90;;;;;;4438190;32;20222;-68
2021/06/24 09:40:49;;;;;;;16.67;7.50;;;19.80;99.90;;;;;;4438343;32;20142;-68
2021/06/24 09:43:16;;;;;;;12.53;6.77;;;20.00;99.90;;;;;;4438772;32;20251;-68
2021/06/24 09:46:19;;;;;;;13.23;6.73;;;20.10;99.90;;;;;;4438295;32;20486;-69
2021/06/24 09:48:52;;;;;;;14.30;6.90;;;20.20;99.90;;;;;;4436845;32;20530;-68
2021/06/24 09:51:34;;;;;;;12.83;6.47;;;20.40;99.90;;;;;;4437533;32;20151;-69
2021/06/24 09:54:05;;;;;;;11.90;6.33;;;20.80;99.90;;;;;;4437613;32;20162;-68
2021/06/24 09:56:44;;;;;;;12.30;5.97;;;21.00;99.90;;;;;;4439901;32;20232;-69
2021/06/24 09:59:13;;;;;;;9.50;5.90;;;21.40;99.90;;;;;;4438488;32;20486;-69
2021/06/24 10:01:50;;;;;;;10.53;5.50;;;21.70;99.90;;;;;;4437800;32;20165;-69
2021/06/24 10:04:29;;;;;;;12.27;5.80;;;22.00;99.90;;;;;;4437692;32;20138;-68
2021/06/24 10:07:01;;;;;;;11.10;5.23;;;22.30;99.90;;;;;;4437350;32;20464;-68
2021/06/24 10:09:29;;;;;;;11.43;5.10;;;22.60;99.90;;;;;;4439009;32;20147;-68
2021/06/24 10:11:58;;;;;;;10.77;4.87;;;22.70;99.90;;;;;;4437573;32;20224;-69
2021/06/24 10:14:27;;;;;;;11.03;5.57;;;22.80;99.90;;;;;;4437741;32;20162;-70
2021/06/24 10:17:02;;;;;;;10.25;5.20;;;23.00;99.90;;;;;;4437582;32;20154;-71
2021/06/24 10:19:39;;;;;;;8.13;4.72;;;23.40;99.90;;;;;;4437799;32;20201;-71
2021/06/24 10:22:20;;;;;;;7.70;4.50;;;23.70;99.90;;;;;;4438792;32;20193;-72
2021/06/24 10:24:55;;;;;;;8.40;4.32;;;24.10;99.90;;;;;;4439276;32;20258;-71
2021/06/24 10:27:28;;;;;;;8.93;4.50;;;24.40;99.90;;;;;;4438286;32;20201;-71
2021/06/24 10:29:55;;;;;;;13.23;4.57;;;24.80;99.90;;;;;;4439077;32;20158;-71
2021/06/24 10:32:24;;;;;;;12.32;4.45;;;25.10;99.90;;;;;;4438852;32;20176;-71
2021/06/24 10:34:52;;;;;;;5.90;3.87;;;25.30;99.90;;;;;;4438642;32;20139;-70
2021/06/24 10:37:23;;;;;;;8.27;4.45;;;25.60;99.90;;;;;;4440150;32;20161;-71
2021/06/24 10:39:56;;;;;;;7.90;4.28;;;25.90;99.90;;;;;;4440624;32;20200;-71
2021/06/24 10:42:24;;;;;;;6.00;3.60;;;26.40;99.90;;;;;;4440357;32;20245;-71
2021/06/24 10:44:57;;;;;;;6.05;3.97;;;26.80;99.90;;;;;;4441826;32;20165;-71
2021/06/24 10:47:32;;;;;;;9.27;3.65;;;27.20;99.90;;;;;;4440392;32;20226;-71
2021/06/24 10:52:59;;;;;;;10.45;4.10;;;28.00;99.90;;;;;;4440838;32;20426;-71
2021/06/24 10:55:32;;;;;;;6.18;3.72;;;28.50;99.90;;;;;;4442114;32;20142;-72
2021/06/24 10:58:00;;;;;;;7.05;3.80;;;28.90;99.90;;;;;;4440721;32;20146;-70
2021/06/24 11:00:42;;;;;;;11.75;3.75;;;29.00;99.90;;;;;;4441875;32;20495;-71
2021/06/24 11:03:11;;;;;;;6.53;3.35;;;29.30;99.90;;;;;;4441986;32;20131;-71
2021/06/24 11:05:40;;;;;;;6.35;3.53;;;29.40;99.90;;;;;;4440507;32;20170;-71
2021/06/24 11:08:30;;;;;;;9.40;3.67;;;29.70;99.90;;;;;;4440320;32;20190;-70
2021/06/24 11:10:58;;;;;;;4.78;3.12;;;30.30;99.90;;;;;;4377442;32;20353;-70
2021/06/24 11:13:38;;;;;;;6.10;3.35;;;30.60;99.90;;;;;;4377443;32;20156;-70
2021/06/24 11:16:17;;;;;;;7.72;3.42;;;30.90;99.90;;;;;;4377023;32;20209;-70
2021/06/24 11:18:47;;;;;;;5.62;3.35;;;31.20;99.90;;;;;;4378920;32;20155;-70
2021/06/24 11:21:29;;;;;;;8.35;3.50;;;31.60;99.90;;;;;;4377110;32;20385;-71
2021/06/24 11:24:01;;;;;;;5.53;3.03;;;32.10;99.90;;;;;;4364903;32;20223;-70
2021/06/24 11:26:32;;;;;;;6.32;3.60;;;32.30;99.90;;;;;;4377379;32;20187;-71
2021/06/24 11:29:10;;;;;;;6.18;3.35;;;32.80;99.90;;;;;;4377366;32;20219;-70
2021/06/24 11:32:00;;;;;;;8.40;3.12;;;33.10;99.90;;;;;;4378759;32;20191;-70
2021/06/24 11:37:08;;;;;;;8.23;3.28;;;33.70;97.80;;;;;;4378454;32;20253;-71
2021/06/24 11:39:48;;;;;;;6.55;3.28;;;33.90;95.80;;;;;;4378108;32;20493;-71
2021/06/24 11:42:18;;;;;;;8.45;3.15;;;34.20;93.40;;;;;;4377825;32;20152;-70
2021/06/24 11:44:50;;;;;;;7.25;2.95;;;34.30;93.00;;;;;;4376143;32;20502;-70
2021/06/24 11:47:18;;;;;;;5.90;2.87;;;34.30;91.70;;;;;;4389935;32;20178;-70
2021/06/24 12:04:16;;;;;;;6.75;3.42;;;35.70;80.60;;;;;;4441323;32;20177;-71
2021/06/24 12:06:56;;;;;;;10.02;3.33;;;35.70;81.90;;;;;;4439672;32;20213;-71
2021/06/24 12:09:26;;;;;;;6.65;3.22;;;36.00;82.30;;;;;;4441038;32;20280;-70
2021/06/24 12:12:00;;;;;;;7.03;3.28;;;36.30;82.70;;;;;;4438918;32;20419;-71
2021/06/24 12:14:29;;;;;;;6.93;3.37;;;36.60;80.10;;;;;;4440735;32;20468;-71
2021/06/24 12:17:09;;;;;;;7.90;3.40;;;36.80;76.40;;;;;;4439322;32;20135;-71
2021/06/24 12:19:53;;;;;;;5.70;3.00;;;37.00;76.90;;;;;;4439171;32;20142;-71
2021/06/24 12:22:23;;;;;;;7.37;2.90;;;36.80;73.30;;;;;;4440361;32;20147;-71
2021/06/24 12:24:52;;;;;;;6.20;2.70;;;36.70;74.90;;;;;;4440753;32;20173;-71
2021/06/24 12:27:28;;;;;;;6.78;3.10;;;36.50;72.20;;;;;;4438595;32;20170;-72
2021/06/24 12:29:58;;;;;;;6.12;3.20;;;36.80;70.90;;;;;;4439325;32;20423;-70
2021/06/24 12:32:26;;;;;;;5.70;2.90;;;35.90;65.70;;;;;;4439318;32;20160;-72
2021/06/24 12:34:56;;;;;;;8.95;3.30;;;36.00;71.90;;;;;;4439161;32;20134;-72
2021/06/24 12:37:32;;;;;;;6.28;2.92;;;36.20;72.10;;;;;;4439298;32;20139;-71
2021/06/24 12:40:00;;;;;;;8.15;2.95;;;36.40;71.00;;;;;;4440516;32;20195;-71
2021/06/24 12:42:27;;;;;;;8.00;2.95;;;36.70;70.40;;;;;;4439267;32;20219;-71
2021/06/24 12:45:16;;;;;;;9.45;3.17;;;37.00;68.00;;;;;;4438653;32;20150;-71
2021/06/24 12:47:45;;;;;;;8.20;2.83;;;37.20;70.20;;;;;;4438994;32;20150;-71
2021/06/24 12:50:33;;;;;;;7.30;3.40;;;37.40;67.10;;;;;;4440276;32;20173;-71
2021/06/24 12:53:09;;;;;;;8.13;3.70;;;37.40;61.50;;;;;;4440763;32;20174;-71
2021/06/24 12:55:42;;;;;;;4.95;2.90;;;37.10;63.20;;;;;;4438761;32;20408;-69
2021/06/24 12:58:16;;;;;;;5.40;3.20;;;37.40;66.00;;;;;;4440076;32;20177;-71
2021/06/24 13:00:52;;;;;;;7.90;3.40;;;37.80;64.50;;;;;;4439022;32;20456;-71
2021/06/24 13:03:37;;;;;;;7.43;3.67;;;38.20;66.40;;;;;;4438868;32;20130;-71
2021/06/24 13:06:09;;;;;;;9.45;3.95;;;38.40;62.40;;;;;;4440393;32;20461;-70